Latest Weather Observations for Coondewanna

IDW60801

Issued at 11:02 am WST Wednesday 1 April 2015 (issued every 30 minutes, with the page automatically refreshed every 10 minutes)

About weather observations | Map of weather stations | Latest weather observations for WA | Other Formats
Station Details ID: 505051 Name: COONDEWANNA Lat: -22.96 Lon: 118.81 Height: 697.63 m
Data from the previous 72 hours. | See also: Recent months for locations in Western Australia
Date/Time
WST
Temp
°C
App
Temp
°C
Dew
Point
Rel
Hum
%
Delta-T
°C
Wind Press
QNH
hPa
Press
MSL
hPa
Rain
since 9 am
mm
Dir
 
Spd
km/h
Gust
km/h
Spd
kts
Gust
kts
01/11:00am 27.1 27.3 17.6 56 6.1 ENE 13 17 7 9 1018.9 1014.5 0.0
01/10:30am 26.6 27.4 17.4 57 5.9 ENE 9 13 5 7 1019.4 1015.1 0.0
01/10:00am 26.1 27.6 17.7 60 5.4 E 6 11 3 6 1019.6 1015.3 0.0
01/09:30am 24.7 27.6 19.8 74 3.2 E 4 7 2 4 1019.6 1015.3 0.0
01/09:00am 23.8 27.4 19.7 78 2.7 CALM 0 6 0 3 1019.6 1015.3 0.0
01/08:30am 22.5 26.1 19.7 84 1.8 CALM 0 0 0 0 1019.6 1015.3 0.0
01/08:00am 21.6 24.3 19.5 88 1.4 E 4 6 2 3 1019.5 1015.2 0.0
01/07:30am 21.4 24.1 19.5 89 1.2 E 4 7 2 4 1019.1 1013.7 0.0
01/07:00am 21.2 24.8 19.7 91 1.0 CALM 0 0 0 0 1018.9 1013.5 0.0
01/06:30am 20.9 24.3 19.4 91 1.0 CALM 0 0 0 0 1018.6 1013.2 0.0
01/06:00am 21.1 24.3 18.9 87 1.4 CALM 0 0 0 0 1018.5 1013.1 0.0
01/05:30am 21.1 24.4 19.0 88 1.4 CALM 0 0 0 0 1018.5 1013.1 0.0
01/05:00am 21.2 23.0 18.8 86 1.6 E 7 7 4 4 1018.1 1012.7 0.0
01/04:30am 21.3 22.8 18.9 86 1.6 E 9 11 5 6 1018.1 1012.7 0.0
01/04:00am 21.3 22.9 19.2 88 1.4 E 9 13 5 7 1018.1 1012.7 0.0
01/03:30am 21.6 23.3 19.3 87 1.5 E 9 13 5 7 1018.1 1012.7 0.0
01/03:00am 21.4 23.4 19.1 87 1.5 ESE 7 11 4 6 1018.1 1012.7 0.0
01/02:30am 21.7 22.8 19.6 88 1.4 ESE 13 15 7 8 1018.1 1012.7 0.0
01/02:00am 22.1 24.7 20.4 90 1.1 SW 7 11 4 6 1018.0 1012.6 0.0
01/01:30am 22.1 24.7 20.4 90 1.1 SW 7 9 4 5 1018.4 1013.0 0.0
01/01:00am 22.0 24.6 20.1 89 1.3 SW 6 7 3 4 1018.5 1013.1 0.0
01/12:30am 22.1 26.0 20.4 90 1.1 CALM 0 0 0 0 1018.8 1013.4 0.0
01/12:00am 22.0 25.8 20.1 89 1.3 CALM 0 0 0 0 1018.9 1013.5 0.0
 
Date/Time
WST
Temp
°C
App
Temp
°C
Dew
Point
Rel
Hum
%
Delta-T
°C
Wind Press
QNH
hPa
Press
MSL
hPa
Rain
since 9 am
mm
Dir
 
Spd
km/h
Gust
km/h
Spd
kts
Gust
kts
31/11:30pm 22.2 24.6 20.1 88 1.4 SW 7 9 4 5 1019.0 1013.6 0.0
31/11:00pm 22.4 24.8 20.1 87 1.5 SW 7 9 4 5 1019.0 1013.6 0.0
31/10:30pm 22.4 26.3 20.3 88 1.4 CALM 0 6 0 3 1019.3 1013.9 0.0
31/10:00pm 23.0 25.2 20.3 85 1.8 SW 9 11 5 6 1019.3 1013.9 0.0
31/09:30pm 23.5 25.7 20.4 83 2.1 SW 9 13 5 7 1019.5 1014.2 0.0
31/09:00pm 24.0 26.4 20.1 79 2.6 WSW 7 9 4 5 1019.4 1014.0 0.0
31/08:30pm 24.7 25.3 19.5 73 3.4 WSW 15 20 8 11 1019.0 1013.6 0.0
31/08:00pm 24.7 27.0 19.5 73 3.4 WNW 6 7 3 4 1018.7 1013.3 0.0
31/07:30pm 25.0 27.4 20.0 74 3.3 WNW 7 9 4 5 1018.5 1013.1 0.0
31/07:00pm 26.0 27.4 18.7 64 4.8 WNW 9 11 5 6 1018.5 1013.1 0.0
31/06:30pm 26.6 27.6 17.7 58 5.8 NW 9 11 5 6 1017.6 1012.2 0.0
31/06:00pm 27.0 27.5 16.6 53 6.6 NNW 9 11 5 6 1016.8 1011.3 0.0
31/05:30pm 28.0 28.0 16.3 49 7.5 NNW 11 15 6 8 1016.4 1011.0 0.0
31/05:00pm 28.5 27.8 15.4 45 8.2 NNW 13 19 7 10 1016.5 1011.1 0.0
31/04:30pm 29.2 27.3 15.3 42 8.8 NNW 19 30 10 16 1016.5 1011.1 0.0
31/04:00pm 30.4 27.5 14.1 37 10.1 NW 22 33 12 18 1016.3 1010.9 0.0
31/03:30pm 30.3 27.8 15.2 40 9.5 NNW 22 33 12 18 1016.3 1010.9 0.0
31/03:00pm 29.9 29.7 16.7 45 8.5 NW 13 22 7 12 1016.4 1011.0 0.0
31/02:30pm 29.9 28.2 16.3 43 8.7 NNW 20 32 11 17 1016.5 1011.1 0.0
31/02:00pm 29.1 28.1 16.6 46 8.0 NNW 17 28 9 15 1016.8 1011.3 0.0
31/01:30pm 28.5 27.6 17.7 52 7.0 NNW 19 26 10 14 1017.2 1011.8 0.0
31/01:00pm 28.8 27.5 16.7 48 7.8 N 19 33 10 18 1017.5 1012.1 0.0
31/12:30pm 27.4 29.2 19.5 62 5.3 E 9 13 5 7 1017.9 1012.5 0.0
31/12:00pm 26.7 28.3 18.3 60 5.5 NE 7 11 4 6 1018.5 1013.1 0.0
31/11:30am 26.4 28.2 18.3 61 5.3 N 6 11 3 6 1019.1 1013.7 0.0
31/11:00am 25.9 27.8 18.6 64 4.8 NNE 6 11 3 6 1019.6 1014.3 0.0
31/10:30am 25.0 27.2 19.1 70 3.9 S 6 9 3 5 1020.0 1014.6 0.0
31/10:00am 24.0 26.2 19.1 74 3.2 NW 6 7 3 4 1020.4 1015.0 0.0
31/09:30am 23.3 26.3 18.4 74 3.2 CALM 0 7 0 4 1020.3 1014.9 0.0
31/09:00am 22.2 24.7 19.0 82 2.1 SW 4 7 2 4 1020.1 1014.7 6.6
31/08:30am 21.5 23.5 19.2 87 1.5 SW 7 9 4 5 1020.0 1014.6 6.6
31/08:00am 21.3 23.4 19.0 87 1.5 W 6 9 3 5 1019.5 1014.2 6.6
31/07:30am 20.8 23.2 18.9 89 1.2 W 4 6 2 3 1019.3 1013.9 6.6
31/07:00am 20.4 21.4 18.7 90 1.1 W 11 15 6 8 1019.4 1014.0 6.6
31/06:30am 20.4 21.6 18.3 88 1.3 NNW 9 11 5 6 1018.8 1013.4 6.4
31/06:00am 20.4 20.1 18.2 87 1.4 NNE 17 26 9 14 1018.4 1013.0 6.4
31/05:30am 20.2 17.9 18.5 90 1.1 NNE 28 37 15 20 1018.5 1013.1 6.0
31/05:28am 20.3 18.0 18.4 89 1.2 NNE 28 37 15 20 1018.5 1013.1 6.0
31/05:00am 19.3 19.9 18.5 95 0.5 NE 13 17 7 9 1019.2 1013.8 5.2
31/04:30am 19.3 20.2 18.3 94 0.6 NW 11 15 6 8 1019.0 1013.6 3.6
31/04:00am 19.4 21.2 18.2 93 0.8 SW 6 7 3 4 1019.1 1013.7 2.2
31/03:30am 19.4 21.2 18.2 93 0.8 SW 6 7 3 4 1018.8 1013.4 1.6
31/03:00am 19.5 20.4 18.5 94 0.6 SW 11 13 6 7 1018.8 1013.4 1.6
31/02:30am 19.5 20.7 18.3 93 0.8 WSW 9 11 5 6 1018.6 1013.2 1.2
31/02:00am 19.3 20.4 18.1 93 0.8 WSW 9 11 5 6 1018.5 1013.1 1.2
31/01:30am 19.5 19.9 18.2 92 0.8 SSW 13 17 7 9 1018.6 1013.2 1.2
31/01:00am 19.7 19.9 18.5 93 0.8 SSW 15 19 8 10 1019.3 1013.9 1.0
31/12:30am 19.8 20.4 18.5 92 0.8 SW 13 19 7 10 1019.6 1014.3 0.8
31/12:00am 20.4 18.5 18.5 89 1.2 SW 26 37 14 20 1019.5 1014.2 0.4
 
Date/Time
WST
Temp
°C
App
Temp
°C
Dew
Point
Rel
Hum
%
Delta-T
°C
Wind Press
QNH
hPa
Press
MSL
hPa
Rain
since 9 am
mm
Dir
 
Spd
km/h
Gust
km/h
Spd
kts
Gust
kts
30/11:43pm 21.0 19.1 18.6 86 1.5 WSW 26 41 14 22 1019.3 1013.9 0.4
30/11:30pm 22.0 23.8 17.4 75 2.9 ENE 4 11 2 6 1019.1 1013.7 0.4
30/11:00pm 22.0 24.6 17.4 75 2.9 CALM 0 0 0 0 1018.9 1013.5 0.4
30/10:30pm 22.5 24.6 16.3 68 3.9 CALM 0 0 0 0 1019.1 1013.7 0.4
30/10:00pm 22.7 24.5 15.5 64 4.4 CALM 0 0 0 0 1019.4 1014.0 0.4
30/09:30pm 22.5 24.0 15.8 66 4.2 ENE 2 7 1 4 1019.5 1014.2 0.4
30/09:00pm 22.7 21.9 16.0 66 4.2 E 15 20 8 11 1019.3 1013.9 0.4
30/08:30pm 22.5 22.9 17.2 72 3.4 NE 11 17 6 9 1019.1 1013.7 0.4
30/08:00pm 22.8 21.7 17.3 71 3.5 ESE 19 24 10 13 1019.1 1013.7 0.4
30/07:30pm 22.5 21.3 18.5 78 2.6 SSE 22 26 12 14 1019.1 1013.7 0.4
30/07:00pm 22.6 22.5 18.8 79 2.5 SSE 17 19 9 10 1019.0 1013.6 0.2
30/06:30pm 24.6 26.2 16.8 62 4.9 ENE 4 7 2 4 1018.8 1013.4 0.0
30/06:00pm 25.3 26.4 17.2 61 5.2 NNE 7 9 4 5 1018.4 1013.0 0.0
30/05:30pm 25.5 27.9 16.9 59 5.5 CALM 0 0 0 0 1018.0 1012.6 0.0
30/05:00pm 25.8 26.5 16.1 55 6.1 N 7 11 4 6 1017.8 1012.4 0.0
30/04:30pm 26.4 25.6 15.1 49 7.0 NNE 13 20 7 11 1017.7 1012.3 0.0
30/04:00pm 26.6 26.6 15.3 50 7.0 NNE 9 15 5 8 1017.4 1012.0 0.0
30/03:30pm 27.0 26.0 14.7 47 7.6 NE 13 17 7 9 1017.2 1011.8 0.0
30/03:00pm 26.9 25.3 14.0 45 7.9 NE 15 20 8 11 1017.1 1011.7 0.0
30/02:30pm 27.0 24.9 13.7 44 8.1 NE 17 26 9 14 1017.1 1011.7 0.0
30/02:00pm 26.9 25.1 13.3 43 8.2 NNE 15 22 8 12 1017.4 1012.0 0.0
30/01:30pm 27.0 25.2 13.4 43 8.3 N 15 22 8 12 1017.5 1012.1 0.0
30/01:00pm 26.8 24.6 13.2 43 8.2 N 17 24 9 13 1017.7 1012.3 0.0
30/12:30pm 26.8 24.2 13.2 43 8.2 N 19 24 10 13 1018.0 1012.6 0.0
30/12:00pm 26.5 24.1 13.9 45 7.7 N 19 32 10 17 1018.5 1013.1 0.0
30/11:30am 26.2 23.2 12.6 43 8.1 N 20 33 11 18 1019.1 1013.7 0.0
30/11:00am 26.3 23.1 13.1 44 7.9 N 22 32 12 17 1019.4 1014.0 0.0
30/10:30am 26.4 23.8 13.9 46 7.6 N 20 35 11 19 1019.8 1014.4 0.0
30/10:00am 26.1 24.1 13.9 47 7.4 NNE 17 24 9 13 1020.2 1014.8 0.0
30/09:30am 25.7 23.7 13.9 48 7.2 NNE 17 26 9 14 1020.3 1014.9 0.0
30/09:00am 25.7 23.6 13.5 46 7.4 NNE 17 28 9 15 1019.9 1014.5 0.0
30/08:30am 25.0 25.0 15.3 55 6.0 NE 9 15 5 8 1019.8 1014.4 0.0
30/08:00am 24.3 24.7 16.3 61 5.0 NE 9 13 5 7 1019.2 1013.8 0.0
30/07:30am 24.1 23.4 15.3 58 5.4 E 13 15 7 8 1018.8 1013.4 0.0
30/07:00am 24.0 24.1 15.5 59 5.3 E 9 11 5 6 1018.6 1013.2 0.0
30/06:30am 23.9 24.5 15.7 60 5.1 SSE 7 11 4 6 1018.4 1013.0 0.0
30/06:00am 23.4 24.5 16.7 66 4.2 SSE 6 7 3 4 1018.0 1012.6 0.0
30/05:30am 24.0 24.7 16.0 61 5.0 NE 7 11 4 6 1017.8 1012.4 0.0
30/05:00am 24.6 24.3 14.4 53 6.2 NE 9 13 5 7 1017.3 1011.9 0.0
30/04:30am 22.8 23.6 16.4 67 4.0 NE 7 9 4 5 1017.3 1011.9 0.0
30/04:00am 22.6 24.5 16.6 69 3.8 NE 2 9 1 5 1017.0 1011.6 0.0
30/03:30am 23.3 23.8 15.6 62 4.8 NE 7 9 4 5 1017.4 1012.0 0.0
30/03:00am 23.4 23.6 15.7 62 4.8 ENE 9 13 5 7 1017.5 1012.1 0.0
30/02:30am 23.7 23.0 15.5 60 5.1 E 13 15 7 8 1017.5 1012.1 0.0
30/02:00am 23.8 23.8 15.3 59 5.2 ENE 9 11 5 6 1017.9 1012.5 0.0
30/01:30am 23.8 24.3 15.6 60 5.1 ENE 7 9 4 5 1018.0 1012.6 0.0
30/01:00am 24.7 24.5 14.8 54 6.1 ENE 9 11 5 6 1018.3 1012.9 0.0
30/12:30am 25.4 24.4 14.5 51 6.7 NE 13 15 7 8 1018.5 1013.1 0.0
30/12:00am 25.8 24.3 14.3 49 7.0 ENE 15 20 8 11 1018.8 1013.4 0.0
 
Date/Time
WST
Temp
°C
App
Temp
°C
Dew
Point
Rel
Hum
%
Delta-T
°C
Wind Press
QNH
hPa
Press
MSL
hPa
Rain
since 9 am
mm
Dir
 
Spd
km/h
Gust
km/h
Spd
kts
Gust
kts
29/11:30pm 25.7 24.7 14.5 50 6.9 NE 13 15 7 8 1019.0 1013.6 0.0
29/11:00pm 26.0 25.2 14.1 47 7.3 NE 11 19 6 10 1019.0 1013.6 0.0
29/10:30pm 26.1 25.7 14.2 48 7.3 NE 9 15 5 8 1019.4 1014.0 0.0
29/10:00pm 26.2 25.0 14.0 47 7.4 NE 13 17 7 9 1019.6 1014.3 0.0
29/09:30pm 26.5 25.3 13.9 45 7.7 NE 13 19 7 10 1019.8 1014.4 0.0
29/09:00pm 26.8 24.3 13.5 44 8.1 NE 19 24 10 13 1019.4 1014.0 0.0
29/08:30pm 27.3 24.3 13.6 43 8.4 NE 22 32 12 17 1019.3 1013.9 0.0
29/08:00pm 28.4 25.2 13.1 39 9.3 NE 22 35 12 19 1018.8 1013.4 0.0
29/07:30pm 28.3 27.4 13.8 41 8.9 E 11 13 6 7 1018.3 1012.9 0.0
29/07:00pm 29.3 27.9 12.3 35 10.2 ENE 11 13 6 7 1017.8 1012.4 0.0
29/06:30pm 30.0 26.7 11.5 32 11.0 ENE 20 32 11 17 1017.6 1012.2 0.0
29/06:00pm 30.1 27.9 12.1 33 10.8 ENE 15 20 8 11 1017.2 1011.8 0.0
29/05:30pm 30.3 28.7 12.7 34 10.7 ENE 13 17 7 9 1017.0 1011.6 0.0
29/05:00pm 30.6 28.9 12.5 33 11.0 E 13 17 7 9 1017.0 1011.6 0.0
29/04:30pm 31.3 28.2 12.2 31 11.6 E 20 28 11 15 1017.0 1011.6 0.0
29/04:00pm 31.4 28.5 12.2 30 11.6 ENE 19 26 10 14 1016.8 1011.3 0.0
29/03:30pm 31.9 29.1 12.7 31 11.8 E 19 24 10 13 1016.8 1011.3 0.0
29/03:00pm 31.7 29.3 12.5 31 11.7 NE 17 26 9 14 1016.9 1011.5 0.0
29/02:30pm 32.0 29.3 12.8 31 11.8 ENE 19 30 10 16 1017.0 1011.6 0.0
29/02:00pm 31.2 28.5 13.0 33 11.1 NE 19 28 10 15 1017.2 1011.8 0.0
29/01:30pm 31.0 28.5 12.4 32 11.3 ENE 17 28 9 15 1017.6 1012.2 0.0
29/01:00pm 30.3 28.0 13.1 34 10.5 ENE 17 28 9 15 1017.9 1012.5 0.0
29/12:30pm 30.6 27.8 14.2 36 10.2 ENE 22 32 12 17 1018.4 1013.0 0.0
29/12:00pm 29.9 28.5 14.4 38 9.6 E 15 24 8 13 1018.8 1013.4 0.0
29/11:30am 29.1 27.2 14.1 40 9.3 ENE 17 24 9 13 1019.2 1013.8 0.0

Other Formats:

Comma delimited format used in spreadsheet applications
http://www.bom.gov.au/fwo/IDW60801/IDW60801.99312.axf

JavaScript Object Notation format (JSON) in row-major order
http://www.bom.gov.au/fwo/IDW60801/IDW60801.99312.json